sensor_id;sensor_type;location;lat;lon;timestamp;P1;durP1;ratioP1;P2;durP2;ratioP2
43142;SDS011;28750;59.842;17.584;2022-08-21T00:00:42;11.45;;;2.20;;
43142;SDS011;28750;59.842;17.584;2022-08-21T00:03:10;9.57;;;2.42;;
43142;SDS011;28750;59.842;17.584;2022-08-21T00:05:40;7.28;;;2.42;;
43142;SDS011;28750;59.842;17.584;2022-08-21T00:08:09;11.85;;;2.60;;
43142;SDS011;28750;59.842;17.584;2022-08-21T00:10:36;8.73;;;2.55;;
43142;SDS011;28750;59.842;17.584;2022-08-21T00:13:05;5.07;;;1.90;;
43142;SDS011;28750;59.842;17.584;2022-08-21T00:15:33;11.98;;;2.83;;
43142;SDS011;28750;59.842;17.584;2022-08-21T00:18:02;10.73;;;2.45;;
43142;SDS011;28750;59.842;17.584;2022-08-21T00:20:31;8.98;;;2.53;;
43142;SDS011;28750;59.842;17.584;2022-08-21T00:22:59;10.02;;;2.78;;
43142;SDS011;28750;59.842;17.584;2022-08-21T00:25:26;10.75;;;2.90;;
43142;SDS011;28750;59.842;17.584;2022-08-21T00:27:54;10.27;;;2.65;;
43142;SDS011;28750;59.842;17.584;2022-08-21T00:30:22;14.80;;;2.95;;
43142;SDS011;28750;59.842;17.584;2022-08-21T00:32:51;6.70;;;2.55;;
43142;SDS011;28750;59.842;17.584;2022-08-21T00:35:21;9.20;;;2.65;;
43142;SDS011;28750;59.842;17.584;2022-08-21T00:37:51;7.32;;;2.60;;
43142;SDS011;28750;59.842;17.584;2022-08-21T00:40:21;8.93;;;2.42;;
43142;SDS011;28750;59.842;17.584;2022-08-21T00:42:57;13.00;;;2.90;;
43142;SDS011;28750;59.842;17.584;2022-08-21T00:45:24;8.85;;;2.60;;
43142;SDS011;28750;59.842;17.584;2022-08-21T00:47:53;8.00;;;2.80;;
43142;SDS011;28750;59.842;17.584;2022-08-21T00:50:20;8.23;;;2.67;;
43142;SDS011;28750;59.842;17.584;2022-08-21T00:52:47;5.53;;;2.13;;
43142;SDS011;28750;59.842;17.584;2022-08-21T00:55:19;10.82;;;2.90;;
43142;SDS011;28750;59.842;17.584;2022-08-21T00:57:52;9.73;;;2.95;;
43142;SDS011;28750;59.842;17.584;2022-08-21T01:00:24;8.60;;;3.08;;
43142;SDS011;28750;59.842;17.584;2022-08-21T01:02:57;10.30;;;3.05;;
43142;SDS011;28750;59.842;17.584;2022-08-21T01:05:25;7.30;;;2.35;;
43142;SDS011;28750;59.842;17.584;2022-08-21T01:07:53;10.88;;;2.97;;
43142;SDS011;28750;59.842;17.584;2022-08-21T01:10:22;6.20;;;2.70;;
43142;SDS011;28750;59.842;17.584;2022-08-21T01:12:50;11.65;;;2.60;;
43142;SDS011;28750;59.842;17.584;2022-08-21T01:15:20;7.60;;;2.97;;
43142;SDS011;28750;59.842;17.584;2022-08-21T01:17:50;10.23;;;2.40;;
43142;SDS011;28750;59.842;17.584;2022-08-21T01:20:18;13.07;;;3.47;;
43142;SDS011;28750;59.842;17.584;2022-08-21T01:22:46;5.15;;;2.42;;
43142;SDS011;28750;59.842;17.584;2022-08-21T01:25:14;7.45;;;2.60;;
43142;SDS011;28750;59.842;17.584;2022-08-21T01:27:42;10.57;;;3.22;;
43142;SDS011;28750;59.842;17.584;2022-08-21T01:30:11;13.20;;;3.05;;
43142;SDS011;28750;59.842;17.584;2022-08-21T01:32:42;9.80;;;3.05;;
43142;SDS011;28750;59.842;17.584;2022-08-21T01:35:11;13.65;;;3.03;;
43142;SDS011;28750;59.842;17.584;2022-08-21T01:37:40;6.60;;;3.10;;
43142;SDS011;28750;59.842;17.584;2022-08-21T01:40:08;7.32;;;3.60;;
43142;SDS011;28750;59.842;17.584;2022-08-21T01:42:37;8.27;;;2.80;;
43142;SDS011;28750;59.842;17.584;2022-08-21T01:45:05;10.93;;;2.95;;
43142;SDS011;28750;59.842;17.584;2022-08-21T01:47:34;8.35;;;2.88;;
43142;SDS011;28750;59.842;17.584;2022-08-21T01:50:06;4.70;;;2.40;;
43142;SDS011;28750;59.842;17.584;2022-08-21T01:52:35;8.30;;;2.72;;
43142;SDS011;28750;59.842;17.584;2022-08-21T01:55:03;5.93;;;2.63;;
43142;SDS011;28750;59.842;17.584;2022-08-21T01:57:31;15.23;;;2.55;;
43142;SDS011;28750;59.842;17.584;2022-08-21T01:59:58;7.65;;;2.55;;
43142;SDS011;28750;59.842;17.584;2022-08-21T02:02:25;6.90;;;2.47;;
43142;SDS011;28750;59.842;17.584;2022-08-21T02:04:52;9.45;;;2.88;;
43142;SDS011;28750;59.842;17.584;2022-08-21T02:07:19;6.22;;;2.50;;
43142;SDS011;28750;59.842;17.584;2022-08-21T02:09:46;6.22;;;2.70;;
43142;SDS011;28750;59.842;17.584;2022-08-21T02:12:13;8.32;;;2.80;;
43142;SDS011;28750;59.842;17.584;2022-08-21T02:14:42;6.75;;;2.50;;
43142;SDS011;28750;59.842;17.584;2022-08-21T02:17:09;10.77;;;2.78;;
43142;SDS011;28750;59.842;17.584;2022-08-21T02:19:36;9.32;;;2.72;;
43142;SDS011;28750;59.842;17.584;2022-08-21T02:22:05;7.65;;;3.13;;
43142;SDS011;28750;59.842;17.584;2022-08-21T02:24:32;10.07;;;3.42;;
43142;SDS011;28750;59.842;17.584;2022-08-21T02:27:02;8.48;;;2.58;;
43142;SDS011;28750;59.842;17.584;2022-08-21T02:29:29;8.40;;;2.67;;
43142;SDS011;28750;59.842;17.584;2022-08-21T02:31:56;6.03;;;2.63;;
43142;SDS011;28750;59.842;17.584;2022-08-21T02:34:23;8.77;;;3.20;;
43142;SDS011;28750;59.842;17.584;2022-08-21T02:36:49;10.85;;;3.45;;
43142;SDS011;28750;59.842;17.584;2022-08-21T02:39:18;12.00;;;3.22;;
43142;SDS011;28750;59.842;17.584;2022-08-21T02:41:45;9.23;;;3.40;;
43142;SDS011;28750;59.842;17.584;2022-08-21T02:44:17;5.07;;;2.47;;
43142;SDS011;28750;59.842;17.584;2022-08-21T02:46:44;7.78;;;3.42;;
43142;SDS011;28750;59.842;17.584;2022-08-21T02:49:11;10.90;;;3.60;;
43142;SDS011;28750;59.842;17.584;2022-08-21T02:51:40;6.28;;;2.83;;
43142;SDS011;28750;59.842;17.584;2022-08-21T02:54:07;8.40;;;3.13;;
43142;SDS011;28750;59.842;17.584;2022-08-21T02:56:34;10.35;;;3.80;;
43142;SDS011;28750;59.842;17.584;2022-08-21T02:59:01;10.13;;;2.97;;
43142;SDS011;28750;59.842;17.584;2022-08-21T03:01:28;8.75;;;2.85;;
43142;SDS011;28750;59.842;17.584;2022-08-21T03:03:55;8.57;;;3.40;;
43142;SDS011;28750;59.842;17.584;2022-08-21T03:06:22;13.65;;;3.60;;
43142;SDS011;28750;59.842;17.584;2022-08-21T03:08:49;10.88;;;2.80;;
43142;SDS011;28750;59.842;17.584;2022-08-21T03:11:17;8.93;;;2.60;;
43142;SDS011;28750;59.842;17.584;2022-08-21T03:13:45;10.82;;;3.28;;
43142;SDS011;28750;59.842;17.584;2022-08-21T03:16:12;10.63;;;3.45;;
43142;SDS011;28750;59.842;17.584;2022-08-21T03:18:39;10.65;;;3.08;;
43142;SDS011;28750;59.842;17.584;2022-08-21T03:21:06;10.02;;;2.88;;
43142;SDS011;28750;59.842;17.584;2022-08-21T03:23:33;11.00;;;2.92;;
43142;SDS011;28750;59.842;17.584;2022-08-21T03:26:01;9.27;;;2.75;;
43142;SDS011;28750;59.842;17.584;2022-08-21T03:28:29;12.93;;;3.20;;
43142;SDS011;28750;59.842;17.584;2022-08-21T03:30:59;5.20;;;2.88;;
43142;SDS011;28750;59.842;17.584;2022-08-21T03:33:25;9.13;;;3.45;;
43142;SDS011;28750;59.842;17.584;2022-08-21T03:35:58;13.98;;;3.53;;
43142;SDS011;28750;59.842;17.584;2022-08-21T03:38:31;11.05;;;2.65;;
43142;SDS011;28750;59.842;17.584;2022-08-21T03:41:00;10.40;;;3.63;;
43142;SDS011;28750;59.842;17.584;2022-08-21T03:43:27;5.38;;;3.08;;
43142;SDS011;28750;59.842;17.584;2022-08-21T03:45:57;8.65;;;3.20;;
43142;SDS011;28750;59.842;17.584;2022-08-21T03:48:26;6.65;;;2.55;;
43142;SDS011;28750;59.842;17.584;2022-08-21T03:50:53;11.35;;;4.53;;
43142;SDS011;28750;59.842;17.584;2022-08-21T03:53:23;14.68;;;3.78;;
43142;SDS011;28750;59.842;17.584;2022-08-21T03:55:51;14.25;;;3.67;;
43142;SDS011;28750;59.842;17.584;2022-08-21T03:58:19;15.02;;;3.72;;
43142;SDS011;28750;59.842;17.584;2022-08-21T04:00:49;9.85;;;3.15;;
43142;SDS011;28750;59.842;17.584;2022-08-21T04:03:18;8.23;;;2.97;;
43142;SDS011;28750;59.842;17.584;2022-08-21T04:05:46;10.13;;;3.55;;
43142;SDS011;28750;59.842;17.584;2022-08-21T04:08:14;13.00;;;4.57;;
43142;SDS011;28750;59.842;17.584;2022-08-21T04:10:44;18.63;;;3.55;;
43142;SDS011;28750;59.842;17.584;2022-08-21T04:13:13;13.27;;;3.95;;
43142;SDS011;28750;59.842;17.584;2022-08-21T04:15:41;13.88;;;3.67;;
43142;SDS011;28750;59.842;17.584;2022-08-21T04:18:09;12.80;;;3.55;;
43142;SDS011;28750;59.842;17.584;2022-08-21T04:20:37;12.45;;;3.83;;
43142;SDS011;28750;59.842;17.584;2022-08-21T04:23:05;6.95;;;3.15;;
43142;SDS011;28750;59.842;17.584;2022-08-21T04:25:32;10.55;;;3.63;;
43142;SDS011;28750;59.842;17.584;2022-08-21T04:27:59;10.23;;;3.85;;
43142;SDS011;28750;59.842;17.584;2022-08-21T04:30:26;12.00;;;3.45;;
43142;SDS011;28750;59.842;17.584;2022-08-21T04:32:53;11.10;;;4.30;;
43142;SDS011;28750;59.842;17.584;2022-08-21T04:35:22;10.57;;;3.55;;
43142;SDS011;28750;59.842;17.584;2022-08-21T04:37:50;7.75;;;3.25;;
43142;SDS011;28750;59.842;17.584;2022-08-21T04:40:18;9.20;;;3.97;;
43142;SDS011;28750;59.842;17.584;2022-08-21T04:42:47;10.90;;;3.45;;
43142;SDS011;28750;59.842;17.584;2022-08-21T04:45:21;13.65;;;3.80;;
43142;SDS011;28750;59.842;17.584;2022-08-21T04:47:53;9.20;;;3.80;;
43142;SDS011;28750;59.842;17.584;2022-08-21T04:50:22;9.25;;;3.40;;
43142;SDS011;28750;59.842;17.584;2022-08-21T04:52:55;13.63;;;3.53;;
43142;SDS011;28750;59.842;17.584;2022-08-21T04:55:22;9.75;;;3.33;;
43142;SDS011;28750;59.842;17.584;2022-08-21T04:57:51;10.75;;;4.07;;
43142;SDS011;28750;59.842;17.584;2022-08-21T05:00:18;10.82;;;3.90;;
43142;SDS011;28750;59.842;17.584;2022-08-21T05:02:46;9.07;;;3.33;;
43142;SDS011;28750;59.842;17.584;2022-08-21T05:05:21;13.23;;;3.35;;
43142;SDS011;28750;59.842;17.584;2022-08-21T05:07:49;13.43;;;4.40;;
43142;SDS011;28750;59.842;17.584;2022-08-21T05:10:17;15.50;;;3.58;;
43142;SDS011;28750;59.842;17.584;2022-08-21T05:12:44;13.65;;;3.65;;
43142;SDS011;28750;59.842;17.584;2022-08-21T05:15:12;14.13;;;3.63;;
43142;SDS011;28750;59.842;17.584;2022-08-21T05:17:39;8.55;;;3.45;;
43142;SDS011;28750;59.842;17.584;2022-08-21T05:20:11;10.27;;;4.28;;
43142;SDS011;28750;59.842;17.584;2022-08-21T05:22:38;12.82;;;4.00;;
43142;SDS011;28750;59.842;17.584;2022-08-21T05:25:06;8.73;;;3.72;;
43142;SDS011;28750;59.842;17.584;2022-08-21T05:27:34;6.50;;;3.50;;
43142;SDS011;28750;59.842;17.584;2022-08-21T05:30:02;8.80;;;3.97;;
43142;SDS011;28750;59.842;17.584;2022-08-21T05:32:32;10.05;;;3.40;;
43142;SDS011;28750;59.842;17.584;2022-08-21T05:35:00;6.60;;;3.40;;
43142;SDS011;28750;59.842;17.584;2022-08-21T05:37:30;12.13;;;4.25;;
43142;SDS011;28750;59.842;17.584;2022-08-21T05:39:58;10.33;;;3.40;;
43142;SDS011;28750;59.842;17.584;2022-08-21T05:42:26;11.38;;;3.65;;
43142;SDS011;28750;59.842;17.584;2022-08-21T05:44:54;15.82;;;4.68;;
43142;SDS011;28750;59.842;17.584;2022-08-21T05:47:20;11.65;;;3.72;;
43142;SDS011;28750;59.842;17.584;2022-08-21T05:49:47;11.93;;;4.93;;
43142;SDS011;28750;59.842;17.584;2022-08-21T05:52:18;9.05;;;3.38;;
43142;SDS011;28750;59.842;17.584;2022-08-21T05:54:46;9.30;;;3.05;;
43142;SDS011;28750;59.842;17.584;2022-08-21T05:57:13;7.50;;;3.28;;
43142;SDS011;28750;59.842;17.584;2022-08-21T05:59:40;11.73;;;3.55;;
43142;SDS011;28750;59.842;17.584;2022-08-21T06:02:07;12.65;;;3.80;;
43142;SDS011;28750;59.842;17.584;2022-08-21T06:04:40;12.73;;;3.58;;
43142;SDS011;28750;59.842;17.584;2022-08-21T06:07:10;12.63;;;3.92;;
43142;SDS011;28750;59.842;17.584;2022-08-21T06:09:37;11.45;;;3.05;;
43142;SDS011;28750;59.842;17.584;2022-08-21T06:12:05;8.68;;;3.05;;
43142;SDS011;28750;59.842;17.584;2022-08-21T06:14:34;12.30;;;2.97;;
43142;SDS011;28750;59.842;17.584;2022-08-21T06:17:05;12.73;;;4.10;;
43142;SDS011;28750;59.842;17.584;2022-08-21T06:19:38;9.88;;;2.95;;
43142;SDS011;28750;59.842;17.584;2022-08-21T06:22:05;8.98;;;3.60;;
43142;SDS011;28750;59.842;17.584;2022-08-21T06:24:32;12.82;;;3.45;;
43142;SDS011;28750;59.842;17.584;2022-08-21T06:27:04;11.95;;;3.35;;
43142;SDS011;28750;59.842;17.584;2022-08-21T06:29:32;11.88;;;3.15;;
43142;SDS011;28750;59.842;17.584;2022-08-21T06:32:00;10.57;;;3.60;;
43142;SDS011;28750;59.842;17.584;2022-08-21T06:34:28;14.40;;;3.53;;
43142;SDS011;28750;59.842;17.584;2022-08-21T06:36:55;10.07;;;2.85;;
43142;SDS011;28750;59.842;17.584;2022-08-21T06:39:24;9.75;;;3.13;;
43142;SDS011;28750;59.842;17.584;2022-08-21T06:41:51;10.25;;;2.97;;
43142;SDS011;28750;59.842;17.584;2022-08-21T06:44:21;8.10;;;2.75;;
43142;SDS011;28750;59.842;17.584;2022-08-21T06:46:48;8.02;;;2.47;;
43142;SDS011;28750;59.842;17.584;2022-08-21T06:49:15;10.98;;;2.75;;
43142;SDS011;28750;59.842;17.584;2022-08-21T06:51:42;9.85;;;3.40;;
43142;SDS011;28750;59.842;17.584;2022-08-21T06:54:09;15.20;;;3.20;;
43142;SDS011;28750;59.842;17.584;2022-08-21T06:56:36;9.57;;;2.75;;
43142;SDS011;28750;59.842;17.584;2022-08-21T06:59:03;9.15;;;2.95;;
43142;SDS011;28750;59.842;17.584;2022-08-21T07:01:31;9.45;;;2.88;;
43142;SDS011;28750;59.842;17.584;2022-08-21T07:03:58;5.40;;;2.10;;
43142;SDS011;28750;59.842;17.584;2022-08-21T07:06:25;18.15;;;3.83;;
43142;SDS011;28750;59.842;17.584;2022-08-21T07:08:54;9.35;;;2.50;;
43142;SDS011;28750;59.842;17.584;2022-08-21T07:11:23;8.40;;;3.05;;
43142;SDS011;28750;59.842;17.584;2022-08-21T07:13:50;9.57;;;2.95;;
43142;SDS011;28750;59.842;17.584;2022-08-21T07:16:20;6.07;;;2.42;;
43142;SDS011;28750;59.842;17.584;2022-08-21T07:18:47;7.45;;;2.65;;
43142;SDS011;28750;59.842;17.584;2022-08-21T07:21:15;9.00;;;2.60;;
43142;SDS011;28750;59.842;17.584;2022-08-21T07:23:46;9.15;;;2.55;;
43142;SDS011;28750;59.842;17.584;2022-08-21T07:26:15;9.73;;;2.47;;
43142;SDS011;28750;59.842;17.584;2022-08-21T07:28:46;9.02;;;2.40;;
43142;SDS011;28750;59.842;17.584;2022-08-21T07:31:14;8.07;;;2.72;;
43142;SDS011;28750;59.842;17.584;2022-08-21T07:33:44;9.10;;;2.55;;
43142;SDS011;28750;59.842;17.584;2022-08-21T07:36:11;7.45;;;2.28;;
43142;SDS011;28750;59.842;17.584;2022-08-21T07:38:38;8.18;;;2.53;;
43142;SDS011;28750;59.842;17.584;2022-08-21T07:41:15;9.95;;;2.63;;
43142;SDS011;28750;59.842;17.584;2022-08-21T07:43:45;7.05;;;3.20;;
43142;SDS011;28750;59.842;17.584;2022-08-21T07:46:15;7.17;;;2.70;;
43142;SDS011;28750;59.842;17.584;2022-08-21T07:48:41;7.75;;;2.45;;
43142;SDS011;28750;59.842;17.584;2022-08-21T07:51:10;10.55;;;2.88;;
43142;SDS011;28750;59.842;17.584;2022-08-21T07:53:39;8.73;;;2.50;;
43142;SDS011;28750;59.842;17.584;2022-08-21T07:56:06;9.35;;;2.50;;
43142;SDS011;28750;59.842;17.584;2022-08-21T07:58:36;9.25;;;2.55;;
43142;SDS011;28750;59.842;17.584;2022-08-21T08:01:03;10.82;;;2.78;;
43142;SDS011;28750;59.842;17.584;2022-08-21T08:03:32;8.95;;;2.50;;
43142;SDS011;28750;59.842;17.584;2022-08-21T08:05:59;7.68;;;2.00;;
43142;SDS011;28750;59.842;17.584;2022-08-21T08:08:29;9.03;;;2.07;;
43142;SDS011;28750;59.842;17.584;2022-08-21T08:10:56;8.20;;;1.90;;
43142;SDS011;28750;59.842;17.584;2022-08-21T08:13:24;5.50;;;1.90;;
43142;SDS011;28750;59.842;17.584;2022-08-21T08:15:52;5.78;;;2.25;;
43142;SDS011;28750;59.842;17.584;2022-08-21T08:18:19;7.53;;;2.47;;
43142;SDS011;28750;59.842;17.584;2022-08-21T08:20:46;8.52;;;1.83;;
43142;SDS011;28750;59.842;17.584;2022-08-21T08:23:13;9.05;;;1.80;;
43142;SDS011;28750;59.842;17.584;2022-08-21T08:25:41;5.43;;;1.77;;
43142;SDS011;28750;59.842;17.584;2022-08-21T08:28:08;10.45;;;2.80;;
43142;SDS011;28750;59.842;17.584;2022-08-21T08:30:35;8.00;;;2.22;;
43142;SDS011;28750;59.842;17.584;2022-08-21T08:33:03;5.25;;;1.90;;
43142;SDS011;28750;59.842;17.584;2022-08-21T08:35:30;6.00;;;2.05;;
43142;SDS011;28750;59.842;17.584;2022-08-21T08:37:57;10.13;;;2.50;;
43142;SDS011;28750;59.842;17.584;2022-08-21T08:40:28;6.25;;;2.30;;
43142;SDS011;28750;59.842;17.584;2022-08-21T08:43:01;6.32;;;2.05;;
43142;SDS011;28750;59.842;17.584;2022-08-21T08:45:28;8.05;;;1.88;;
43142;SDS011;28750;59.842;17.584;2022-08-21T08:48:00;7.45;;;2.60;;
43142;SDS011;28750;59.842;17.584;2022-08-21T08:50:39;7.95;;;2.70;;
43142;SDS011;28750;59.842;17.584;2022-08-21T08:53:17;4.63;;;1.80;;
43142;SDS011;28750;59.842;17.584;2022-08-21T08:56:05;8.70;;;1.95;;
43142;SDS011;28750;59.842;17.584;2022-08-21T08:58:34;4.88;;;2.03;;
43142;SDS011;28750;59.842;17.584;2022-08-21T09:01:08;6.97;;;2.30;;
43142;SDS011;28750;59.842;17.584;2022-08-21T09:03:43;3.83;;;1.83;;
43142;SDS011;28750;59.842;17.584;2022-08-21T09:06:25;8.82;;;2.58;;
43142;SDS011;28750;59.842;17.584;2022-08-21T09:09:17;8.77;;;1.80;;
43142;SDS011;28750;59.842;17.584;2022-08-21T09:11:47;3.10;;;1.65;;
43142;SDS011;28750;59.842;17.584;2022-08-21T09:25:23;8.70;;;2.08;;
43142;SDS011;28750;59.842;17.584;2022-08-21T09:27:53;5.25;;;2.30;;
43142;SDS011;28750;59.842;17.584;2022-08-21T09:30:23;5.57;;;1.85;;
43142;SDS011;28750;59.842;17.584;2022-08-21T09:32:56;3.78;;;1.73;;
43142;SDS011;28750;59.842;17.584;2022-08-21T09:35:23;6.18;;;1.80;;
43142;SDS011;28750;59.842;17.584;2022-08-21T09:37:53;4.90;;;2.03;;
43142;SDS011;28750;59.842;17.584;2022-08-21T09:40:25;6.05;;;1.90;;
43142;SDS011;28750;59.842;17.584;2022-08-21T09:43:38;7.68;;;1.95;;
43142;SDS011;28750;59.842;17.584;2022-08-21T09:46:01;4.07;;;1.67;;
43142;SDS011;28750;59.842;17.584;2022-08-21T09:48:54;8.93;;;2.15;;
43142;SDS011;28750;59.842;17.584;2022-08-21T09:51:24;6.25;;;1.70;;
43142;SDS011;28750;59.842;17.584;2022-08-21T09:56:37;6.70;;;2.08;;
43142;SDS011;28750;59.842;17.584;2022-08-21T09:59:33;9.30;;;2.28;;
43142;SDS011;28750;59.842;17.584;2022-08-21T10:04:57;6.82;;;1.90;;
43142;SDS011;28750;59.842;17.584;2022-08-21T10:07:28;3.30;;;1.42;;
43142;SDS011;28750;59.842;17.584;2022-08-21T10:12:38;8.60;;;2.20;;
43142;SDS011;28750;59.842;17.584;2022-08-21T10:15:47;7.95;;;1.70;;
43142;SDS011;28750;59.842;17.584;2022-08-21T10:24:17;5.03;;;2.10;;
43142;SDS011;28750;59.842;17.584;2022-08-21T10:30:14;7.55;;;1.73;;
43142;SDS011;28750;59.842;17.584;2022-08-21T10:32:50;7.13;;;2.10;;
43142;SDS011;28750;59.842;17.584;2022-08-21T10:35:29;7.53;;;1.75;;
43142;SDS011;28750;59.842;17.584;2022-08-21T10:38:21;3.28;;;1.40;;
43142;SDS011;28750;59.842;17.584;2022-08-21T10:41:19;6.65;;;1.77;;
43142;SDS011;28750;59.842;17.584;2022-08-21T10:44:16;5.13;;;1.65;;
43142;SDS011;28750;59.842;17.584;2022-08-21T10:47:24;6.05;;;2.05;;
43142;SDS011;28750;59.842;17.584;2022-08-21T10:50:04;3.50;;;2.10;;
43142;SDS011;28750;59.842;17.584;2022-08-21T11:01:29;6.15;;;1.83;;
43142;SDS011;28750;59.842;17.584;2022-08-21T11:04:13;4.15;;;1.70;;
43142;SDS011;28750;59.842;17.584;2022-08-21T11:07:03;6.22;;;2.10;;
43142;SDS011;28750;59.842;17.584;2022-08-21T11:09:37;5.00;;;1.70;;
43142;SDS011;28750;59.842;17.584;2022-08-21T11:12:15;6.53;;;1.60;;
43142;SDS011;28750;59.842;17.584;2022-08-21T11:14:53;4.63;;;2.15;;
43142;SDS011;28750;59.842;17.584;2022-08-21T11:17:30;3.60;;;1.65;;
43142;SDS011;28750;59.842;17.584;2022-08-21T11:23:42;3.10;;;1.42;;
43142;SDS011;28750;59.842;17.584;2022-08-21T11:26:44;4.43;;;1.98;;
43142;SDS011;28750;59.842;17.584;2022-08-21T11:29:21;6.57;;;1.67;;
43142;SDS011;28750;59.842;17.584;2022-08-21T11:34:26;3.90;;;1.33;;
43142;SDS011;28750;59.842;17.584;2022-08-21T11:39:59;4.22;;;1.60;;
43142;SDS011;28750;59.842;17.584;2022-08-21T11:45:32;5.38;;;1.30;;
43142;SDS011;28750;59.842;17.584;2022-08-21T11:48:53;3.15;;;1.40;;
43142;SDS011;28750;59.842;17.584;2022-08-21T11:51:19;5.25;;;1.40;;
43142;SDS011;28750;59.842;17.584;2022-08-21T11:53:51;4.50;;;2.00;;
43142;SDS011;28750;59.842;17.584;2022-08-21T11:56:41;3.33;;;1.50;;
43142;SDS011;28750;59.842;17.584;2022-08-21T11:59:19;5.50;;;1.60;;
43142;SDS011;28750;59.842;17.584;2022-08-21T12:01:55;3.75;;;1.33;;
43142;SDS011;28750;59.842;17.584;2022-08-21T12:04:28;5.15;;;1.50;;
43142;SDS011;28750;59.842;17.584;2022-08-21T12:07:09;8.15;;;1.55;;
43142;SDS011;28750;59.842;17.584;2022-08-21T12:09:52;4.57;;;1.40;;
43142;SDS011;28750;59.842;17.584;2022-08-21T12:12:26;3.40;;;1.40;;
43142;SDS011;28750;59.842;17.584;2022-08-21T12:15:11;3.22;;;1.30;;
43142;SDS011;28750;59.842;17.584;2022-08-21T12:17:40;2.45;;;1.17;;
43142;SDS011;28750;59.842;17.584;2022-08-21T12:22:54;4.07;;;1.35;;
43142;SDS011;28750;59.842;17.584;2022-08-21T12:25:39;2.70;;;1.02;;
43142;SDS011;28750;59.842;17.584;2022-08-21T12:28:22;3.72;;;1.40;;
43142;SDS011;28750;59.842;17.584;2022-08-21T12:30:53;4.85;;;1.52;;
43142;SDS011;28750;59.842;17.584;2022-08-21T12:36:02;3.67;;;1.00;;
43142;SDS011;28750;59.842;17.584;2022-08-21T12:38:50;5.15;;;1.27;;
43142;SDS011;28750;59.842;17.584;2022-08-21T12:41:41;2.15;;;1.10;;
43142;SDS011;28750;59.842;17.584;2022-08-21T12:44:22;2.65;;;1.40;;
43142;SDS011;28750;59.842;17.584;2022-08-21T12:47:03;2.60;;;0.80;;
43142;SDS011;28750;59.842;17.584;2022-08-21T12:49:56;4.60;;;1.25;;
43142;SDS011;28750;59.842;17.584;2022-08-21T12:52:45;2.75;;;1.00;;
43142;SDS011;28750;59.842;17.584;2022-08-21T12:55:32;2.70;;;0.88;;
43142;SDS011;28750;59.842;17.584;2022-08-21T12:58:01;5.75;;;1.35;;
43142;SDS011;28750;59.842;17.584;2022-08-21T13:00:32;2.17;;;0.98;;
43142;SDS011;28750;59.842;17.584;2022-08-21T13:02:59;2.75;;;1.00;;
43142;SDS011;28750;59.842;17.584;2022-08-21T13:05:28;2.28;;;0.93;;
43142;SDS011;28750;59.842;17.584;2022-08-21T13:07:58;1.50;;;0.80;;
43142;SDS011;28750;59.842;17.584;2022-08-21T13:10:30;4.30;;;0.77;;
43142;SDS011;28750;59.842;17.584;2022-08-21T13:13:01;2.15;;;0.80;;
43142;SDS011;28750;59.842;17.584;2022-08-21T13:15:32;2.53;;;0.90;;
43142;SDS011;28750;59.842;17.584;2022-08-21T13:18:02;4.23;;;1.40;;
43142;SDS011;28750;59.842;17.584;2022-08-21T13:20:38;2.83;;;0.80;;
43142;SDS011;28750;59.842;17.584;2022-08-21T13:23:21;1.20;;;0.68;;
43142;SDS011;28750;59.842;17.584;2022-08-21T13:25:51;0.80;;;0.60;;
43142;SDS011;28750;59.842;17.584;2022-08-21T13:28:21;1.58;;;1.02;;
43142;SDS011;28750;59.842;17.584;2022-08-21T13:30:53;3.88;;;0.80;;
43142;SDS011;28750;59.842;17.584;2022-08-21T13:33:24;0.98;;;0.77;;
43142;SDS011;28750;59.842;17.584;2022-08-21T13:36:01;1.25;;;0.82;;
43142;SDS011;28750;59.842;17.584;2022-08-21T13:38:39;1.08;;;0.70;;
43142;SDS011;28750;59.842;17.584;2022-08-21T13:41:27;1.50;;;0.77;;
43142;SDS011;28750;59.842;17.584;2022-08-21T13:44:01;6.20;;;0.95;;
43142;SDS011;28750;59.842;17.584;2022-08-21T13:46:42;1.85;;;1.00;;
43142;SDS011;28750;59.842;17.584;2022-08-21T13:49:10;3.38;;;0.65;;
43142;SDS011;28750;59.842;17.584;2022-08-21T13:51:42;1.50;;;0.82;;
43142;SDS011;28750;59.842;17.584;2022-08-21T13:54:26;7.15;;;1.00;;
43142;SDS011;28750;59.842;17.584;2022-08-21T13:57:00;8.68;;;1.40;;
43142;SDS011;28750;59.842;17.584;2022-08-21T13:59:39;1.88;;;0.82;;
43142;SDS011;28750;59.842;17.584;2022-08-21T14:02:20;2.75;;;0.75;;
43142;SDS011;28750;59.842;17.584;2022-08-21T14:04:54;3.67;;;1.10;;
43142;SDS011;28750;59.842;17.584;2022-08-21T14:07:28;3.22;;;1.17;;
43142;SDS011;28750;59.842;17.584;2022-08-21T14:10:34;5.25;;;1.13;;
43142;SDS011;28750;59.842;17.584;2022-08-21T14:12:55;3.92;;;1.23;;
43142;SDS011;28750;59.842;17.584;2022-08-21T14:15:32;1.58;;;1.10;;
43142;SDS011;28750;59.842;17.584;2022-08-21T14:18:13;2.97;;;1.45;;
43142;SDS011;28750;59.842;17.584;2022-08-21T14:20:43;4.88;;;1.33;;
43142;SDS011;28750;59.842;17.584;2022-08-21T14:23:10;3.13;;;1.33;;
43142;SDS011;28750;59.842;17.584;2022-08-21T14:25:44;1.77;;;1.23;;
43142;SDS011;28750;59.842;17.584;2022-08-21T14:28:24;3.38;;;1.13;;
43142;SDS011;28750;59.842;17.584;2022-08-21T14:30:57;3.10;;;1.50;;
43142;SDS011;28750;59.842;17.584;2022-08-21T14:33:37;2.72;;;1.42;;
43142;SDS011;28750;59.842;17.584;2022-08-21T14:36:04;3.70;;;1.60;;
43142;SDS011;28750;59.842;17.584;2022-08-21T14:38:31;4.68;;;1.27;;
43142;SDS011;28750;59.842;17.584;2022-08-21T14:41:03;1.87;;;1.20;;
43142;SDS011;28750;59.842;17.584;2022-08-21T14:43:41;6.43;;;1.40;;
43142;SDS011;28750;59.842;17.584;2022-08-21T14:46:12;3.20;;;1.02;;
43142;SDS011;28750;59.842;17.584;2022-08-21T14:48:46;4.07;;;1.17;;
43142;SDS011;28750;59.842;17.584;2022-08-21T14:51:14;4.75;;;1.20;;
43142;SDS011;28750;59.842;17.584;2022-08-21T14:53:43;2.20;;;0.90;;
43142;SDS011;28750;59.842;17.584;2022-08-21T14:56:10;4.43;;;1.42;;
43142;SDS011;28750;59.842;17.584;2022-08-21T14:58:42;2.60;;;1.13;;
43142;SDS011;28750;59.842;17.584;2022-08-21T15:01:14;4.32;;;1.48;;
43142;SDS011;28750;59.842;17.584;2022-08-21T15:03:43;1.08;;;0.82;;
43142;SDS011;28750;59.842;17.584;2022-08-21T15:06:11;1.48;;;1.20;;
43142;SDS011;28750;59.842;17.584;2022-08-21T15:08:38;1.30;;;1.17;;
43142;SDS011;28750;59.842;17.584;2022-08-21T15:11:05;1.75;;;1.10;;
43142;SDS011;28750;59.842;17.584;2022-08-21T15:13:33;2.15;;;0.98;;
43142;SDS011;28750;59.842;17.584;2022-08-21T15:16:03;1.15;;;0.90;;
43142;SDS011;28750;59.842;17.584;2022-08-21T15:18:32;0.70;;;0.70;;
43142;SDS011;28750;59.842;17.584;2022-08-21T15:21:01;1.90;;;0.90;;
43142;SDS011;28750;59.842;17.584;2022-08-21T15:23:28;3.88;;;1.08;;
43142;SDS011;28750;59.842;17.584;2022-08-21T15:25:55;2.88;;;1.08;;
43142;SDS011;28750;59.842;17.584;2022-08-21T15:28:25;2.15;;;1.13;;
43142;SDS011;28750;59.842;17.584;2022-08-21T15:30:52;2.25;;;1.02;;
43142;SDS011;28750;59.842;17.584;2022-08-21T15:33:22;2.10;;;0.90;;
43142;SDS011;28750;59.842;17.584;2022-08-21T15:35:51;1.88;;;1.02;;
43142;SDS011;28750;59.842;17.584;2022-08-21T15:38:18;0.65;;;0.60;;
43142;SDS011;28750;59.842;17.584;2022-08-21T15:40:47;1.02;;;0.80;;
43142;SDS011;28750;59.842;17.584;2022-08-21T15:43:30;1.70;;;1.20;;
43142;SDS011;28750;59.842;17.584;2022-08-21T15:46:10;2.58;;;0.85;;
43142;SDS011;28750;59.842;17.584;2022-08-21T15:48:40;1.48;;;0.80;;
43142;SDS011;28750;59.842;17.584;2022-08-21T15:51:14;1.83;;;0.80;;